createdAt,value
2024-05-09T00:00:39.197Z,2.23
2024-05-09T00:03:08.405Z,1.83
2024-05-09T00:05:36.935Z,2.40
2024-05-09T00:08:04.414Z,4.73
2024-05-09T00:10:36.444Z,2.50
2024-05-09T00:13:06.436Z,1.70
2024-05-09T00:15:33.974Z,2.27
2024-05-09T00:18:01.737Z,2.17
2024-05-09T00:20:36.839Z,2.50
2024-05-09T00:23:07.506Z,5.50
2024-05-09T00:25:35.270Z,3.43
2024-05-09T00:28:02.661Z,3.07
2024-05-09T00:30:34.443Z,2.60
2024-05-09T00:33:08.718Z,2.00
2024-05-09T00:35:36.951Z,2.97
2024-05-09T00:38:04.224Z,3.07
2024-05-09T00:40:41.630Z,2.13
2024-05-09T00:43:11.396Z,2.00
2024-05-09T00:45:38.654Z,1.60
2024-05-09T00:48:08.491Z,2.63
2024-05-09T00:50:40.189Z,4.03
2024-05-09T00:53:09.864Z,2.37
2024-05-09T00:55:37.767Z,2.30
2024-05-09T00:58:05.979Z,2.10
2024-05-09T01:00:38.911Z,1.90
2024-05-09T01:03:10.033Z,2.43
2024-05-09T01:05:39.317Z,2.30
2024-05-09T01:08:07.091Z,2.87
2024-05-09T01:10:35.533Z,2.33
2024-05-09T01:13:04.110Z,1.97
2024-05-09T01:15:30.975Z,2.07
2024-05-09T01:17:58.909Z,1.73
2024-05-09T01:20:36.854Z,2.37
2024-05-09T01:23:09.848Z,3.13
2024-05-09T01:25:37.521Z,4.23
2024-05-09T01:28:04.605Z,5.87
2024-05-09T01:30:35.148Z,2.80
2024-05-09T01:33:06.582Z,2.30
2024-05-09T01:35:35.015Z,2.17
2024-05-09T01:38:01.946Z,2.30
2024-05-09T01:40:36.667Z,4.40
2024-05-09T01:43:06.983Z,8.80
2024-05-09T01:45:33.948Z,2.47
2024-05-09T01:48:01.126Z,2.53
2024-05-09T01:50:37.711Z,3.00
2024-05-09T01:53:09.217Z,5.23
2024-05-09T01:55:36.293Z,2.37
2024-05-09T01:58:03.076Z,3.00
2024-05-09T02:00:38.391Z,2.27
2024-05-09T02:03:10.707Z,2.10
2024-05-09T02:05:39.421Z,2.00
2024-05-09T02:08:06.981Z,2.80
2024-05-09T02:10:33.889Z,3.13
2024-05-09T02:13:01.030Z,3.07
2024-05-09T02:15:27.858Z,2.50
2024-05-09T02:17:54.742Z,6.30
2024-05-09T02:22:51.281Z,2.43
2024-05-09T02:25:18.006Z,3.00
2024-05-09T02:27:44.707Z,4.10
2024-05-09T02:30:18.815Z,3.53
2024-05-09T02:32:53.033Z,2.63
2024-05-09T02:35:19.801Z,2.77
2024-05-09T02:37:46.562Z,2.43
2024-05-09T02:40:15.009Z,4.60
2024-05-09T02:42:48.105Z,2.40
2024-05-09T02:45:14.806Z,2.90
2024-05-09T02:47:41.556Z,2.20
2024-05-09T02:50:08.487Z,2.80
2024-05-09T02:52:35.243Z,3.33
2024-05-09T02:55:02.173Z,3.87
2024-05-09T02:57:28.873Z,3.40
2024-05-09T02:59:55.600Z,2.50
2024-05-09T03:02:22.497Z,2.30
2024-05-09T03:04:49.526Z,2.60
2024-05-09T03:07:17.837Z,2.73
2024-05-09T03:09:47.098Z,4.00
2024-05-09T03:12:13.946Z,2.63
2024-05-09T03:14:40.800Z,4.53
2024-05-09T03:17:07.755Z,3.13
2024-05-09T03:19:37.686Z,2.80
2024-05-09T03:22:04.593Z,2.77
2024-05-09T03:24:31.307Z,3.00
2024-05-09T03:26:58.004Z,3.63
2024-05-09T03:29:24.833Z,4.13
2024-05-09T03:31:51.699Z,3.27
2024-05-09T03:34:18.481Z,2.90
2024-05-09T03:36:45.609Z,5.00
2024-05-09T03:39:12.371Z,3.40
2024-05-09T03:41:39.275Z,3.30
2024-05-09T03:44:06.143Z,3.13
2024-05-09T03:46:37.684Z,3.03
2024-05-09T03:49:04.781Z,2.90
2024-05-09T03:51:31.906Z,2.70
2024-05-09T03:53:58.717Z,4.97
2024-05-09T03:56:25.969Z,3.10
2024-05-09T03:58:52.731Z,2.63
2024-05-09T04:01:19.597Z,4.63
2024-05-09T04:03:46.558Z,7.60
2024-05-09T04:06:23.290Z,3.13
2024-05-09T04:08:50.070Z,2.73
2024-05-09T04:11:17.880Z,4.63
2024-05-09T04:13:44.872Z,3.83
2024-05-09T04:16:11.800Z,4.00
2024-05-09T04:18:38.602Z,3.10
2024-05-09T04:21:06.400Z,3.23
2024-05-09T04:23:33.241Z,3.10
2024-05-09T04:26:04.224Z,9.20
2024-05-09T04:28:30.963Z,3.17
2024-05-09T04:30:57.709Z,3.43
2024-05-09T04:33:24.747Z,2.53
2024-05-09T04:35:52.211Z,4.13
2024-05-09T04:38:19.127Z,5.20
2024-05-09T04:40:45.974Z,2.90
2024-05-09T04:43:18.922Z,3.57
2024-05-09T04:45:46.140Z,4.43
2024-05-09T04:48:13.329Z,2.77
2024-05-09T04:50:40.477Z,3.20
2024-05-09T04:53:09.841Z,3.57
2024-05-09T04:55:37.986Z,5.70
2024-05-09T04:58:06.845Z,4.70
2024-05-09T05:00:37.193Z,4.30
2024-05-09T05:03:30.990Z,3.80
2024-05-09T05:05:58.112Z,5.03
2024-05-09T05:08:25.205Z,5.53
2024-05-09T05:10:52.974Z,4.33
2024-05-09T05:13:21.369Z,5.27
2024-05-09T05:15:50.879Z,4.40
2024-05-09T05:18:18.266Z,7.73
2024-05-09T05:20:45.718Z,8.70
2024-05-09T05:23:14.945Z,4.50
2024-05-09T05:25:42.534Z,5.23
2024-05-09T05:28:09.515Z,4.40
2024-05-09T05:30:38.059Z,4.80
2024-05-09T05:33:06.144Z,10.03
2024-05-09T05:35:34.438Z,4.47
2024-05-09T05:38:01.761Z,5.97
2024-05-09T05:40:36.135Z,5.03
2024-05-09T05:43:25.434Z,8.70
2024-05-09T05:45:52.141Z,6.80
2024-05-09T05:48:19.270Z,5.37
2024-05-09T05:50:46.431Z,6.13
2024-05-09T05:53:13.412Z,7.20
2024-05-09T05:55:41.224Z,5.23
2024-05-09T05:58:12.181Z,7.03
2024-05-09T06:00:41.463Z,4.90
2024-05-09T06:03:10.358Z,5.30
2024-05-09T06:05:40.143Z,3.93
2024-05-09T06:08:07.744Z,4.67
2024-05-09T06:10:38.949Z,6.80
2024-05-09T06:13:10.368Z,4.30
2024-05-09T06:15:37.127Z,4.60
2024-05-09T06:18:06.361Z,4.33
2024-05-09T06:20:36.536Z,4.63
2024-05-09T06:23:06.341Z,4.43
2024-05-09T06:25:33.857Z,4.47
2024-05-09T06:28:00.965Z,3.80
2024-05-09T06:30:36.796Z,5.43
2024-05-09T06:33:10.244Z,7.00
2024-05-09T06:35:38.608Z,4.33
2024-05-09T06:38:08.671Z,6.43
2024-05-09T06:40:38.627Z,3.50
2024-05-09T06:43:14.016Z,4.50
2024-05-09T06:45:41.174Z,4.80
2024-05-09T06:48:09.137Z,8.60
2024-05-09T06:50:38.324Z,4.40
2024-05-09T06:53:06.886Z,6.20
2024-05-09T06:55:33.827Z,4.77
2024-05-09T06:58:00.589Z,4.07
2024-05-09T07:00:35.153Z,3.30
2024-05-09T07:03:15.874Z,6.80
2024-05-09T07:05:45.056Z,4.10
2024-05-09T07:08:13.431Z,4.40
2024-05-09T07:10:40.307Z,4.57
2024-05-09T07:13:09.058Z,4.00
2024-05-09T07:15:35.786Z,9.33
2024-05-09T07:18:11.233Z,5.20
2024-05-09T07:20:39.760Z,4.23
2024-05-09T07:23:09.957Z,4.90
2024-05-09T07:25:37.090Z,5.10
2024-05-09T07:28:04.056Z,6.93
2024-05-09T07:30:34.085Z,5.23
2024-05-09T07:33:03.049Z,4.30
2024-05-09T07:35:31.047Z,4.60
2024-05-09T07:37:58.354Z,10.60
2024-05-09T07:40:32.920Z,5.90
2024-05-09T07:43:07.416Z,6.37
2024-05-09T07:52:23.926Z,3.53
2024-05-09T07:53:39.300Z,5.07
2024-05-09T07:56:10.122Z,3.60
2024-05-09T07:58:37.796Z,3.30
2024-05-09T08:01:05.118Z,6.43
2024-05-09T08:03:34.132Z,3.83
2024-05-09T08:06:01.130Z,8.10
2024-05-09T08:08:27.836Z,3.07
2024-05-09T08:10:54.716Z,3.53
2024-05-09T08:13:21.514Z,6.57
2024-05-09T08:15:48.811Z,4.90
2024-05-09T08:18:15.989Z,2.97
2024-05-09T08:20:42.884Z,17.83
2024-05-09T08:23:11.103Z,3.30
2024-05-09T08:25:38.730Z,2.67
2024-05-09T08:28:05.847Z,7.23
2024-05-09T08:30:36.616Z,5.07
2024-05-09T08:33:06.085Z,6.43
2024-05-09T08:35:33.478Z,3.13
2024-05-09T08:38:02.830Z,4.83
2024-05-09T08:40:35.422Z,4.20
2024-05-09T08:43:07.770Z,2.50
2024-05-09T08:45:36.071Z,2.83
2024-05-09T08:48:05.849Z,6.90
2024-05-09T08:50:38.732Z,3.57
2024-05-09T08:53:07.623Z,3.77
2024-05-09T08:55:37.396Z,4.73
2024-05-09T08:58:07.566Z,2.77
2024-05-09T09:00:37.427Z,3.67
2024-05-09T09:03:09.132Z,3.23
2024-05-09T09:05:38.805Z,4.83
2024-05-09T09:08:09.062Z,4.97
2024-05-09T09:10:39.567Z,3.20
2024-05-09T09:13:09.553Z,2.73
2024-05-09T09:15:47.646Z,3.90
2024-05-09T09:18:16.092Z,3.97
2024-05-09T09:20:43.965Z,3.37
2024-05-09T09:23:10.771Z,2.90
2024-05-09T09:25:41.545Z,3.17
2024-05-09T09:28:09.255Z,4.50
2024-05-09T09:30:42.950Z,3.23
2024-05-09T09:33:10.640Z,4.03
2024-05-09T09:35:39.842Z,3.17
2024-05-09T09:38:07.655Z,6.63
2024-05-09T09:40:38.933Z,3.40
2024-05-09T09:43:14.779Z,3.20
2024-05-09T09:45:44.172Z,3.60
2024-05-09T09:48:14.629Z,4.27
2024-05-09T09:50:41.907Z,4.80
2024-05-09T09:53:10.214Z,3.37
2024-05-09T09:55:38.539Z,4.10
2024-05-09T09:58:08.767Z,3.37
2024-05-09T10:00:37.991Z,4.33
2024-05-09T10:03:05.301Z,3.87
2024-05-09T10:05:34.160Z,3.80
2024-05-09T10:08:06.805Z,3.30
2024-05-09T10:10:36.177Z,3.40
2024-05-09T10:13:04.640Z,3.67
2024-05-09T10:15:45.292Z,3.43
2024-05-09T10:18:12.393Z,4.43
2024-05-09T10:20:46.469Z,3.47
2024-05-09T10:23:26.945Z,4.60
2024-05-09T10:26:04.627Z,4.70
2024-05-09T10:28:33.187Z,9.90
2024-05-09T10:31:03.219Z,5.10
2024-05-09T10:33:39.945Z,5.50
2024-05-09T10:36:25.979Z,5.03
2024-05-09T10:38:53.997Z,4.90
2024-05-09T10:41:22.102Z,6.53
2024-05-09T10:43:49.443Z,6.40
2024-05-09T10:46:16.851Z,5.80
2024-05-09T10:48:44.562Z,7.50
2024-05-09T10:51:11.906Z,4.73
2024-05-09T10:53:43.511Z,7.80
2024-05-09T10:56:11.064Z,7.67
2024-05-09T10:58:37.846Z,7.93
2024-05-09T11:01:07.027Z,6.37
2024-05-09T11:03:34.882Z,5.20
2024-05-09T11:06:02.050Z,7.40
2024-05-09T11:08:30.530Z,7.43
2024-05-09T11:10:59.367Z,7.17
2024-05-09T11:13:30.122Z,13.70
2024-05-09T11:15:57.154Z,6.73
2024-05-09T11:18:26.759Z,8.13
2024-05-09T11:20:56.168Z,7.13
2024-05-09T11:23:27.329Z,7.43
2024-05-09T11:25:55.859Z,5.80
2024-05-09T11:28:23.701Z,7.40
2024-05-09T11:30:50.940Z,5.37
2024-05-09T11:33:20.533Z,7.43
2024-05-09T11:35:47.443Z,8.77
2024-05-09T11:38:14.294Z,6.10
2024-05-09T11:40:41.719Z,6.73
2024-05-09T11:43:08.688Z,5.17
2024-05-09T11:45:35.439Z,6.60
2024-05-09T11:48:03.648Z,5.43
2024-05-09T11:50:35.208Z,5.70
2024-05-09T11:53:03.001Z,6.93
2024-05-09T11:55:30.583Z,7.30
2024-05-09T11:57:57.621Z,9.00
2024-05-09T12:00:33.874Z,7.27
2024-05-09T12:03:05.348Z,6.60
2024-05-09T12:05:34.148Z,6.73
2024-05-09T12:08:01.554Z,12.50
2024-05-09T12:10:33.467Z,8.17
2024-05-09T12:13:04.740Z,6.70
2024-05-09T12:15:33.972Z,8.17
2024-05-09T12:18:03.419Z,5.97
2024-05-09T12:20:36.843Z,7.10
2024-05-09T12:23:06.477Z,7.43
2024-05-09T12:25:33.405Z,5.73
2024-05-09T12:28:00.629Z,5.60
2024-05-09T12:30:36.009Z,8.40
2024-05-09T12:33:07.665Z,9.60
2024-05-09T12:35:34.718Z,5.07
2024-05-09T12:38:01.525Z,10.40
2024-05-09T12:40:35.620Z,4.93
2024-05-09T12:43:06.972Z,4.00
2024-05-09T12:45:34.041Z,6.10
2024-05-09T12:48:01.064Z,6.10
2024-05-09T12:50:32.744Z,7.87
2024-05-09T12:53:02.379Z,6.33
2024-05-09T12:55:34.206Z,5.83
2024-05-09T12:58:08.571Z,6.30
2024-05-09T13:00:35.576Z,6.33
2024-05-09T13:03:02.746Z,5.80
2024-05-09T13:05:29.899Z,5.50
2024-05-09T13:07:57.235Z,8.33
2024-05-09T13:10:31.694Z,5.27
2024-05-09T13:13:01.345Z,5.07
2024-05-09T13:15:30.426Z,7.87
2024-05-09T13:18:00.313Z,6.80
2024-05-09T13:20:33.418Z,10.30
2024-05-09T13:23:03.649Z,6.73
2024-05-09T13:25:30.531Z,13.50
2024-05-09T13:27:57.867Z,10.80
2024-05-09T13:30:30.185Z,15.20
2024-05-09T13:33:06.085Z,11.30
2024-05-09T13:35:34.866Z,16.10
2024-05-09T13:38:02.581Z,10.00
2024-05-09T13:40:33.815Z,8.27
2024-05-09T13:43:03.504Z,8.73
2024-05-09T13:45:30.528Z,8.40
2024-05-09T13:47:57.538Z,8.90
2024-05-09T13:50:33.108Z,10.07
2024-05-09T13:53:03.218Z,8.03
2024-05-09T13:55:30.015Z,7.43
2024-05-09T13:57:56.813Z,11.50
2024-05-09T14:00:37.864Z,16.33
2024-05-09T14:03:10.708Z,8.17
2024-05-09T14:05:37.794Z,6.83
2024-05-09T14:08:04.959Z,7.53
2024-05-09T14:10:32.518Z,6.10
2024-05-09T14:13:00.942Z,5.80
2024-05-09T14:15:27.899Z,5.70
2024-05-09T14:17:55.296Z,11.23
2024-05-09T14:20:30.383Z,5.57
2024-05-09T14:22:59.642Z,9.90
2024-05-09T14:25:28.414Z,9.37
2024-05-09T14:27:57.505Z,8.53
2024-05-09T14:30:31.044Z,7.80
2024-05-09T14:33:04.139Z,6.07
2024-05-09T14:35:31.191Z,8.80
2024-05-09T14:37:58.191Z,4.37
2024-05-09T14:40:36.515Z,4.30
2024-05-09T14:43:08.475Z,4.63
2024-05-09T14:45:35.623Z,8.83
2024-05-09T14:48:03.580Z,5.40
2024-05-09T14:50:36.161Z,7.70
2024-05-09T14:53:09.929Z,6.57
2024-05-09T14:55:38.785Z,5.73
2024-05-09T14:58:06.997Z,4.63
2024-05-09T15:00:38.352Z,5.23
2024-05-09T15:03:06.740Z,4.70
2024-05-09T15:05:33.571Z,5.50
2024-05-09T15:08:00.571Z,6.10
2024-05-09T15:10:34.310Z,8.30
2024-05-09T15:13:03.619Z,5.50
2024-05-09T15:15:31.022Z,13.43
2024-05-09T15:17:58.084Z,5.93
2024-05-09T15:20:32.994Z,5.70
2024-05-09T15:23:03.183Z,5.90
2024-05-09T15:25:30.292Z,4.80
2024-05-09T15:27:57.304Z,4.30
2024-05-09T15:30:30.586Z,5.23
2024-05-09T15:33:00.075Z,4.27
2024-05-09T15:35:27.169Z,4.90
2024-05-09T15:37:54.024Z,5.30
2024-05-09T15:40:30.588Z,4.93
2024-05-09T15:43:04.882Z,5.13
2024-05-09T15:45:32.035Z,4.77
2024-05-09T15:47:59.616Z,4.37
2024-05-09T15:50:36.253Z,5.20
2024-05-09T15:53:07.202Z,5.97
2024-05-09T15:55:34.936Z,6.33
2024-05-09T15:58:02.941Z,6.63
2024-05-09T16:00:37.406Z,5.33
2024-05-09T16:03:08.653Z,4.80
2024-05-09T16:05:36.183Z,5.73
2024-05-09T16:08:03.150Z,6.53
2024-05-09T16:10:33.059Z,6.20
2024-05-09T16:13:02.189Z,6.80
2024-05-09T16:15:29.721Z,5.13
2024-05-09T16:17:56.828Z,9.70
2024-05-09T16:22:54.485Z,6.33
2024-05-09T16:25:21.294Z,4.93
2024-05-09T16:27:48.341Z,5.43
2024-05-09T16:30:24.144Z,6.97
2024-05-09T16:32:55.236Z,5.53
2024-05-09T16:35:22.012Z,7.67
2024-05-09T16:37:49.559Z,8.97
2024-05-09T16:40:25.273Z,6.50
2024-05-09T16:43:03.438Z,5.33
2024-05-09T16:45:30.465Z,5.07
2024-05-09T16:48:00.263Z,18.37
2024-05-09T16:50:32.517Z,7.57
2024-05-09T16:53:02.167Z,7.63
2024-05-09T16:55:29.040Z,5.97
2024-05-09T16:57:57.378Z,6.53
2024-05-09T17:00:35.417Z,6.17
2024-05-09T17:03:08.927Z,5.60
2024-05-09T17:05:36.432Z,5.77
2024-05-09T17:08:03.802Z,8.83
2024-05-09T17:10:33.735Z,4.60
2024-05-09T17:13:06.500Z,5.03
2024-05-09T17:15:34.979Z,4.80
2024-05-09T17:18:02.343Z,4.60
2024-05-09T17:20:33.699Z,5.97
2024-05-09T17:23:04.070Z,5.17
2024-05-09T17:25:31.151Z,5.63
2024-05-09T17:28:05.227Z,5.20
2024-05-09T17:30:36.578Z,5.70
2024-05-09T17:33:06.230Z,5.00
2024-05-09T17:35:33.354Z,7.63
2024-05-09T17:38:01.550Z,4.60
2024-05-09T17:40:33.584Z,4.80
2024-05-09T17:43:04.470Z,7.07
2024-05-09T17:45:32.306Z,16.53
2024-05-09T17:47:59.849Z,8.17
2024-05-09T17:50:34.882Z,7.00
2024-05-09T17:53:04.303Z,7.07
2024-05-09T17:55:31.312Z,4.00
2024-05-09T17:57:58.284Z,4.70
2024-05-09T18:00:36.305Z,5.13
2024-05-09T18:03:07.724Z,4.63
2024-05-09T18:05:36.181Z,4.23
2024-05-09T18:08:05.874Z,4.70
2024-05-09T18:10:37.044Z,4.40
2024-05-09T18:13:07.514Z,5.87
2024-05-09T18:15:34.513Z,8.50
2024-05-09T18:18:02.131Z,4.50
2024-05-09T18:20:38.022Z,4.10
2024-05-09T18:23:10.398Z,4.10
2024-05-09T18:25:37.295Z,15.27
2024-05-09T18:28:04.823Z,16.97
2024-05-09T18:30:35.152Z,14.47
2024-05-09T18:33:05.555Z,14.90
2024-05-09T18:35:33.614Z,19.33
2024-05-09T18:38:00.627Z,17.63
2024-05-09T18:40:33.025Z,14.33
2024-05-09T18:43:03.493Z,17.70
2024-05-09T18:45:30.704Z,16.00
2024-05-09T18:47:58.052Z,16.93
2024-05-09T18:50:33.942Z,24.37
2024-05-09T18:53:05.996Z,24.70
2024-05-09T18:55:32.904Z,16.13
2024-05-09T18:57:59.884Z,19.33
2024-05-09T19:00:34.002Z,18.47
2024-05-09T19:03:06.153Z,21.53
2024-05-09T19:05:35.982Z,14.87
2024-05-09T19:08:03.129Z,20.60
2024-05-09T19:10:34.300Z,16.93
2024-05-09T19:13:06.687Z,19.60
2024-05-09T19:15:38.092Z,16.10
2024-05-09T19:18:05.411Z,16.73
2024-05-09T19:20:34.940Z,15.50
2024-05-09T19:23:03.391Z,15.47
2024-05-09T19:25:30.467Z,13.70
2024-05-09T19:27:57.373Z,15.20
2024-05-09T19:30:32.929Z,14.80
2024-05-09T19:33:05.971Z,17.90
2024-05-09T19:35:33.066Z,13.33
2024-05-09T19:38:00.144Z,15.37
2024-05-09T19:40:31.728Z,20.10
2024-05-09T19:43:01.566Z,17.63
2024-05-09T19:45:28.995Z,16.13
2024-05-09T19:47:56.095Z,17.03
2024-05-09T19:50:31.618Z,12.77
2024-05-09T19:53:04.914Z,12.33
2024-05-09T19:55:32.744Z,16.03
2024-05-09T19:58:01.030Z,15.07
2024-05-09T20:00:35.490Z,15.00
2024-05-09T20:03:03.792Z,16.97
2024-05-09T20:05:31.202Z,14.53
2024-05-09T20:07:58.460Z,18.27
2024-05-09T20:10:31.418Z,13.40
2024-05-09T20:13:00.411Z,15.90
2024-05-09T20:15:27.354Z,13.43
2024-05-09T20:17:54.672Z,14.33
2024-05-09T20:20:32.198Z,16.07
2024-05-09T20:23:04.197Z,13.20
2024-05-09T20:25:30.937Z,13.83
2024-05-09T20:27:57.733Z,14.50
2024-05-09T20:30:31.355Z,15.30
2024-05-09T20:33:00.561Z,14.67
2024-05-09T20:35:31.627Z,25.73
2024-05-09T20:37:58.604Z,11.20
2024-05-09T20:40:31.311Z,14.40
2024-05-09T20:43:01.671Z,14.67
2024-05-09T20:45:28.390Z,12.27
2024-05-09T20:47:55.298Z,16.20
2024-05-09T20:50:29.191Z,12.60
2024-05-09T20:53:03.678Z,17.03
2024-05-09T20:55:30.590Z,14.87
2024-05-09T20:57:57.757Z,11.53
2024-05-09T21:00:34.336Z,14.70
2024-05-09T21:03:06.930Z,13.10
2024-05-09T21:05:34.770Z,11.67
2024-05-09T21:08:01.958Z,13.73
2024-05-09T21:10:32.788Z,13.10
2024-05-09T21:13:02.604Z,15.27
2024-05-09T21:15:30.157Z,24.27
2024-05-09T21:17:56.994Z,11.97
2024-05-09T21:20:30.505Z,13.50
2024-05-09T21:22:59.125Z,12.30
2024-05-09T21:25:25.991Z,12.50
2024-05-09T21:27:53.052Z,12.37
2024-05-09T21:30:31.476Z,11.27
2024-05-09T21:33:08.264Z,19.13
2024-05-09T21:35:35.319Z,13.80
2024-05-09T21:38:02.029Z,11.23
2024-05-09T21:40:34.276Z,11.30
2024-05-09T21:43:03.627Z,11.93
2024-05-09T21:45:30.616Z,11.10
2024-05-09T21:47:57.398Z,10.77
2024-05-09T21:50:31.896Z,10.80
2024-05-09T21:53:05.627Z,11.63
2024-05-09T21:55:32.334Z,12.97
2024-05-09T21:57:59.120Z,14.23
2024-05-09T22:00:34.234Z,11.63
2024-05-09T22:03:04.878Z,11.23
2024-05-09T22:05:32.001Z,15.63
2024-05-09T22:07:59.120Z,13.47
2024-05-09T22:10:31.121Z,13.93
2024-05-09T22:13:01.575Z,12.57
2024-05-09T22:15:28.529Z,11.63
2024-05-09T22:17:56.665Z,12.30
2024-05-09T22:20:33.478Z,10.67
2024-05-09T22:23:04.298Z,12.53
2024-05-09T22:25:32.056Z,11.20
2024-05-09T22:28:00.196Z,10.97
2024-05-09T22:30:35.389Z,13.00
2024-05-09T22:33:10.349Z,10.60
2024-05-09T22:35:38.670Z,12.97
2024-05-09T22:38:05.817Z,11.60
2024-05-09T22:40:42.338Z,12.47
2024-05-09T22:43:17.442Z,11.20
2024-05-09T22:45:44.580Z,11.40
2024-05-09T22:48:11.572Z,12.70
2024-05-09T22:50:38.403Z,10.80
2024-05-09T22:53:05.567Z,9.83
2024-05-09T22:55:32.592Z,13.60
2024-05-09T22:57:59.433Z,16.63
2024-05-09T23:00:31.304Z,15.30
2024-05-09T23:03:02.718Z,13.60
2024-05-09T23:05:31.856Z,12.63
2024-05-09T23:07:58.781Z,12.33
2024-05-09T23:10:32.338Z,10.90
2024-05-09T23:13:03.777Z,12.70
2024-05-09T23:15:30.981Z,12.63
2024-05-09T23:17:58.560Z,13.17
2024-05-09T23:20:35.848Z,18.17
2024-05-09T23:23:10.463Z,12.17
2024-05-09T23:25:38.785Z,19.40
2024-05-09T23:28:06.158Z,12.57
2024-05-09T23:30:37.932Z,11.43
2024-05-09T23:33:08.246Z,11.87
2024-05-09T23:35:35.400Z,12.77
2024-05-09T23:38:02.112Z,18.73
2024-05-09T23:40:38.114Z,11.27
2024-05-09T23:43:11.639Z,11.23
2024-05-09T23:45:39.238Z,15.00
2024-05-09T23:48:06.572Z,11.50
2024-05-09T23:50:36.792Z,13.10
2024-05-09T23:53:07.816Z,12.13
2024-05-09T23:55:35.716Z,14.27
2024-05-09T23:58:02.516Z,11.00
